Time;durP1;ratioP1;P1;durP2;ratioP2;P2;SDS_P1;SDS_P2;PMS_P1;PMS_P2;Temp;Humidity;BMP_temperature;BMP_pressure;BME280_temperature;BME280_humidity;BME280_pressure;Samples;Min_cycle;Max_cycle;Signal;HPM_P1;HPM_P2
2023/02/04 00:00:23;;;;;;;0.10;0.10;;;;;;;;;;5037607;28;20201;-70
2023/02/04 00:02:50;;;;;;;0.10;0.10;;;;;;;;;;5060284;28;20264;-71
2023/02/04 00:05:17;;;;;;;0.17;0.17;;;;;;;;;;5037286;28;20276;-70
2023/02/04 00:07:43;;;;;;;0.13;0.13;;;;;;;;;;5060355;28;20195;-69
2023/02/04 00:10:10;;;;;;;0.10;0.10;;;;;;;;;;5036480;28;20301;-75
2023/02/04 00:12:37;;;;;;;0.10;0.10;;;;;;;;;;5061031;28;20260;-70
2023/02/04 00:15:04;;;;;;;0.20;0.20;;;;;;;;;;5046230;28;20217;-70
2023/02/04 00:17:31;;;;;;;0.20;0.20;;;;;;;;;;5051379;28;20242;-71
2023/02/04 00:19:57;;;;;;;0.10;0.10;;;;;;;;;;5045998;28;20238;-69
2023/02/04 00:22:25;;;;;;;0.10;0.10;;;;;;;;;;5051176;28;20240;-70
2023/02/04 00:24:51;;;;;;;0.20;0.20;;;;;;;;;;5046068;28;20234;-70
2023/02/04 00:27:18;;;;;;;0.20;0.20;;;;;;;;;;5051071;28;20241;-70
2023/02/04 00:29:45;;;;;;;0.10;0.10;;;;;;;;;;5045386;28;20230;-70
2023/02/04 00:32:12;;;;;;;0.20;0.20;;;;;;;;;;5050832;28;20241;-71
2023/02/04 00:34:38;;;;;;;0.10;0.10;;;;;;;;;;5045859;28;20205;-69
2023/02/04 00:37:05;;;;;;;0.10;0.10;;;;;;;;;;5050606;28;20310;-70
2023/02/04 00:39:31;;;;;;;0.20;0.20;;;;;;;;;;5045564;28;20200;-69
2023/02/04 00:41:57;;;;;;;0.87;0.87;;;;;;;;;;5049554;28;20322;-70
2023/02/04 00:44:24;;;;;;;0.10;0.10;;;;;;;;;;5046843;28;20216;-70
2023/02/04 00:46:51;;;;;;;0.17;0.17;;;;;;;;;;5048499;28;20497;-70
2023/02/04 00:49:18;;;;;;;0.20;0.20;;;;;;;;;;5047323;28;20299;-70
2023/02/04 00:51:45;;;;;;;0.20;0.20;;;;;;;;;;5047654;28;20247;-70
2023/02/04 00:54:12;;;;;;;0.10;0.10;;;;;;;;;;5048225;28;20503;-70
2023/02/04 00:56:38;;;;;;;0.20;0.20;;;;;;;;;;5046847;28;20243;-70
2023/02/04 00:59:05;;;;;;;0.20;0.20;;;;;;;;;;5048974;28;20201;-70
2023/02/04 01:01:31;;;;;;;0.20;0.20;;;;;;;;;;5045815;28;20478;-70
2023/02/04 01:03:59;;;;;;;0.20;0.20;;;;;;;;;;5049921;28;20428;-70
2023/02/04 01:06:25;;;;;;;0.10;0.10;;;;;;;;;;5044871;28;20321;-69
2023/02/04 01:08:51;;;;;;;0.10;0.10;;;;;;;;;;5050154;28;20274;-70
2023/02/04 01:11:18;;;;;;;0.20;0.20;;;;;;;;;;5044006;28;20239;-70
2023/02/04 01:13:44;;;;;;;0.20;0.20;;;;;;;;;;5050968;28;20247;-70
2023/02/04 01:16:11;;;;;;;0.20;0.20;;;;;;;;;;5042999;28;20440;-70
2023/02/04 01:18:37;;;;;;;0.20;0.20;;;;;;;;;;5052233;28;20271;-70
2023/02/04 01:21:05;;;;;;;0.10;0.10;;;;;;;;;;5042155;28;20299;-70
2023/02/04 01:23:32;;;;;;;0.20;0.20;;;;;;;;;;5052548;28;20237;-70
2023/02/04 01:25:58;;;;;;;0.20;0.20;;;;;;;;;;5041232;28;20240;-70
2023/02/04 01:28:24;;;;;;;0.20;0.20;;;;;;;;;;5053481;28;20262;-70
2023/02/04 01:30:51;;;;;;;0.20;0.20;;;;;;;;;;5040011;28;20236;-69
2023/02/04 01:33:17;;;;;;;0.20;0.20;;;;;;;;;;5054104;28;20201;-70
2023/02/04 01:35:44;;;;;;;0.20;0.20;;;;;;;;;;5039246;28;20575;-71
2023/02/04 01:38:12;;;;;;;0.10;0.10;;;;;;;;;;5055106;28;20359;-69
2023/02/04 01:40:39;;;;;;;0.20;0.20;;;;;;;;;;5038346;28;20244;-69
2023/02/04 01:43:05;;;;;;;0.20;0.20;;;;;;;;;;5055899;28;20280;-70
2023/02/04 01:45:34;;;;;;;0.10;0.10;;;;;;;;;;5037506;28;20262;-69
2023/02/04 01:48:00;;;;;;;0.13;0.13;;;;;;;;;;5056563;28;20361;-70
2023/02/04 01:50:27;;;;;;;0.10;0.10;;;;;;;;;;5036715;28;20327;-70
2023/02/04 01:52:53;;;;;;;0.20;0.20;;;;;;;;;;5057119;28;20267;-70
2023/02/04 01:55:23;;;;;;;0.20;0.20;;;;;;;;;;5035583;28;20207;-69
2023/02/04 01:57:51;;;;;;;0.20;0.20;;;;;;;;;;5057433;28;20263;-69
2023/02/04 02:00:21;;;;;;;0.20;0.20;;;;;;;;;;5035524;28;20201;-70
2023/02/04 02:02:49;;;;;;;0.20;0.20;;;;;;;;;;5057544;28;20231;-69
2023/02/04 02:05:19;;;;;;;0.20;0.20;;;;;;;;;;5035085;28;20435;-70
2023/02/04 02:07:46;;;;;;;0.20;0.20;;;;;;;;;;5057971;28;20196;-70
2023/02/04 02:10:13;;;;;;;0.20;0.20;;;;;;;;;;5034538;28;20229;-70
2023/02/04 02:12:41;;;;;;;0.20;0.20;;;;;;;;;;5058361;28;20263;-70
2023/02/04 02:15:08;;;;;;;0.20;0.20;;;;;;;;;;5041613;28;20211;-70
2023/02/04 02:17:34;;;;;;;0.20;0.20;;;;;;;;;;5058799;28;20409;-70
2023/02/04 02:20:01;;;;;;;0.20;0.20;;;;;;;;;;5043981;28;20232;-70
2023/02/04 02:22:29;;;;;;;0.17;0.17;;;;;;;;;;5048965;28;20243;-70
2023/02/04 02:24:56;;;;;;;0.10;0.10;;;;;;;;;;5044407;28;20231;-70
2023/02/04 02:27:23;;;;;;;0.20;0.20;;;;;;;;;;5048866;28;20247;-70
2023/02/04 02:29:49;;;;;;;0.10;0.10;;;;;;;;;;5043732;28;20259;-69
2023/02/04 02:32:16;;;;;;;0.20;0.20;;;;;;;;;;5048697;28;20240;-70
2023/02/04 02:34:43;;;;;;;0.20;0.20;;;;;;;;;;5043485;28;20255;-70
2023/02/04 02:37:09;;;;;;;0.20;0.20;;;;;;;;;;5048790;28;20311;-70
2023/02/04 02:39:36;;;;;;;0.20;0.20;;;;;;;;;;5043486;28;20433;-70
2023/02/04 02:42:04;;;;;;;0.20;0.20;;;;;;;;;;5048088;28;20322;-69
2023/02/04 02:44:31;;;;;;;0.20;0.20;;;;;;;;;;5043885;28;20248;-69
2023/02/04 02:46:58;;;;;;;0.10;0.10;;;;;;;;;;5047382;28;20258;-69
2023/02/04 02:49:25;;;;;;;0.20;0.20;;;;;;;;;;5044402;28;20250;-70
2023/02/04 02:51:52;;;;;;;0.10;0.10;;;;;;;;;;5046715;28;20263;-70
2023/02/04 02:54:21;;;;;;;0.20;0.20;;;;;;;;;;5045475;28;20246;-70
2023/02/04 02:56:48;;;;;;;0.10;0.10;;;;;;;;;;5046204;28;20270;-70
2023/02/04 02:59:16;;;;;;;0.20;0.20;;;;;;;;;;5045937;28;20207;-71
2023/02/04 03:01:43;;;;;;;0.20;0.20;;;;;;;;;;5045287;28;20255;-70
2023/02/04 03:04:10;;;;;;;0.10;0.10;;;;;;;;;;5046460;28;20389;-70
2023/02/04 03:06:36;;;;;;;0.20;0.20;;;;;;;;;;5044453;28;20240;-70
2023/02/04 03:09:03;;;;;;;0.20;0.20;;;;;;;;;;5047314;28;20452;-70
2023/02/04 03:11:31;;;;;;;0.20;0.20;;;;;;;;;;5043468;28;20318;-70
2023/02/04 03:13:59;;;;;;;0.20;0.20;;;;;;;;;;5048069;28;20208;-70
2023/02/04 03:16:27;;;;;;;0.20;0.20;;;;;;;;;;5043079;28;20594;-70
2023/02/04 03:18:54;;;;;;;0.20;0.20;;;;;;;;;;5048971;28;20214;-69
2023/02/04 03:21:20;;;;;;;0.20;0.20;;;;;;;;;;5042649;28;20314;-70
2023/02/04 03:23:47;;;;;;;0.20;0.20;;;;;;;;;;5048992;28;20200;-68
2023/02/04 03:26:13;;;;;;;0.20;0.20;;;;;;;;;;5041450;28;20259;-69
2023/02/04 03:28:40;;;;;;;0.20;0.20;;;;;;;;;;5050870;28;20531;-68
2023/02/04 03:31:06;;;;;;;0.20;0.20;;;;;;;;;;5044895;28;20255;-69
2023/02/04 03:33:34;;;;;;;0.17;0.17;;;;;;;;;;5054500;28;20236;-69
2023/02/04 03:36:01;;;;;;;0.10;0.10;;;;;;;;;;5043433;28;20270;-70
2023/02/04 03:38:27;;;;;;;0.20;0.20;;;;;;;;;;5055428;28;20204;-68
2023/02/04 03:40:54;;;;;;;0.20;0.20;;;;;;;;;;5042623;28;20240;-69
2023/02/04 03:43:20;;;;;;;0.20;0.20;;;;;;;;;;5056330;28;20232;-70
2023/02/04 03:45:46;;;;;;;0.20;0.20;;;;;;;;;;5041714;28;20311;-70
2023/02/04 03:48:13;;;;;;;0.20;0.20;;;;;;;;;;5057028;28;20275;-69
2023/02/04 03:50:41;;;;;;;0.20;0.20;;;;;;;;;;5040521;28;20245;-69
2023/02/04 03:53:07;;;;;;;0.20;0.20;;;;;;;;;;5057718;28;20406;-70
2023/02/04 03:55:34;;;;;;;0.10;0.10;;;;;;;;;;5039888;28;20655;-70
2023/02/04 03:58:01;;;;;;;0.20;0.20;;;;;;;;;;5058484;28;20218;-70
2023/02/04 04:00:27;;;;;;;0.20;0.20;;;;;;;;;;5038966;28;20283;-70
2023/02/04 04:02:54;;;;;;;0.20;0.20;;;;;;;;;;5058921;28;20202;-70
2023/02/04 04:05:20;;;;;;;0.20;0.20;;;;;;;;;;5037878;28;20236;-70
2023/02/04 04:07:48;;;;;;;0.20;0.20;;;;;;;;;;5059883;28;20265;-70
2023/02/04 04:10:14;;;;;;;0.20;0.20;;;;;;;;;;5037030;28;20463;-71
2023/02/04 04:12:41;;;;;;;0.20;0.20;;;;;;;;;;5060723;28;20511;-71
2023/02/04 04:15:07;;;;;;;0.20;0.20;;;;;;;;;;5042638;28;20197;-70
2023/02/04 04:17:34;;;;;;;0.20;0.20;;;;;;;;;;5061429;28;20236;-70
2023/02/04 04:20:00;;;;;;;0.20;0.20;;;;;;;;;;5046282;28;20267;-70
2023/02/04 04:22:26;;;;;;;0.17;0.17;;;;;;;;;;5051228;28;20259;-70
2023/02/04 04:24:54;;;;;;;0.17;0.17;;;;;;;;;;5046139;28;20213;-70
2023/02/04 04:27:20;;;;;;;0.13;0.13;;;;;;;;;;5051135;28;20243;-70
2023/02/04 04:29:47;;;;;;;0.20;0.20;;;;;;;;;;5045475;28;20216;-70
2023/02/04 04:32:14;;;;;;;0.10;0.10;;;;;;;;;;5051008;28;20286;-70
2023/02/04 04:34:40;;;;;;;0.20;0.20;;;;;;;;;;5045818;28;20388;-71
2023/02/04 04:37:06;;;;;;;0.20;0.20;;;;;;;;;;5050832;28;20255;-70
2023/02/04 04:39:33;;;;;;;0.10;0.10;;;;;;;;;;5045166;28;20227;-70
2023/02/04 04:42:00;;;;;;;0.20;0.20;;;;;;;;;;5049584;28;20250;-70
2023/02/04 04:44:27;;;;;;;0.20;0.20;;;;;;;;;;5046533;28;20530;-70
2023/02/04 04:46:53;;;;;;;0.20;0.20;;;;;;;;;;5048934;28;20580;-70
2023/02/04 04:49:19;;;;;;;0.20;0.20;;;;;;;;;;5047381;28;20395;-70
2023/02/04 04:51:46;;;;;;;0.20;0.20;;;;;;;;;;5047902;28;20247;-70
2023/02/04 04:54:12;;;;;;;0.20;0.20;;;;;;;;;;5048056;28;20457;-71
2023/02/04 04:56:39;;;;;;;0.20;0.20;;;;;;;;;;5046264;28;20314;-70
2023/02/04 04:59:06;;;;;;;0.20;0.20;;;;;;;;;;5053333;28;20428;-69
2023/02/04 05:01:33;;;;;;;0.20;0.20;;;;;;;;;;5046040;28;20297;-65
2023/02/04 05:03:59;;;;;;;0.20;0.20;;;;;;;;;;5049555;28;20228;-65
2023/02/04 05:06:26;;;;;;;0.20;0.20;;;;;;;;;;5043772;28;20305;-65
2023/02/04 05:08:52;;;;;;;0.20;0.20;;;;;;;;;;5051709;28;20240;-65
2023/02/04 05:11:19;;;;;;;0.20;0.20;;;;;;;;;;5044042;28;20250;-65
2023/02/04 05:13:45;;;;;;;0.20;0.20;;;;;;;;;;5050901;28;20236;-65
2023/02/04 05:16:13;;;;;;;0.20;0.20;;;;;;;;;;5043204;28;20305;-64
2023/02/04 05:18:40;;;;;;;0.20;0.20;;;;;;;;;;5052058;28;20207;-64
2023/02/04 05:21:07;;;;;;;0.20;0.20;;;;;;;;;;5042392;28;20378;-64
2023/02/04 05:23:33;;;;;;;0.10;0.10;;;;;;;;;;5052505;28;20211;-64
2023/02/04 05:26:00;;;;;;;0.20;0.20;;;;;;;;;;5041482;28;20359;-64
2023/02/04 05:28:26;;;;;;;0.20;0.20;;;;;;;;;;5053243;28;20424;-64
2023/02/04 05:30:53;;;;;;;0.20;0.20;;;;;;;;;;5040117;28;20314;-65
2023/02/04 05:33:21;;;;;;;0.20;0.20;;;;;;;;;;5054228;28;20215;-64
2023/02/04 05:35:47;;;;;;;0.20;0.20;;;;;;;;;;5039635;28;20325;-64
2023/02/04 05:38:13;;;;;;;0.20;0.20;;;;;;;;;;5054596;28;20247;-64
2023/02/04 05:40:40;;;;;;;0.20;0.20;;;;;;;;;;5038544;28;20310;-64
2023/02/04 05:43:06;;;;;;;0.20;0.20;;;;;;;;;;5055494;28;20224;-64
2023/02/04 05:45:33;;;;;;;0.20;0.20;;;;;;;;;;5037397;28;20242;-64
2023/02/04 05:47:59;;;;;;;0.20;0.20;;;;;;;;;;5056312;28;20236;-65
2023/02/04 05:50:27;;;;;;;0.20;0.20;;;;;;;;;;5036291;28;20439;-64
2023/02/04 05:52:53;;;;;;;0.20;0.20;;;;;;;;;;5056596;28;20202;-64
2023/02/04 05:55:19;;;;;;;0.20;0.20;;;;;;;;;;5035950;28;20211;-64
2023/02/04 05:57:46;;;;;;;0.20;0.20;;;;;;;;;;5057868;28;20395;-65
2023/02/04 06:00:13;;;;;;;0.20;0.20;;;;;;;;;;5034222;28;20266;-66
2023/02/04 06:02:40;;;;;;;0.20;0.20;;;;;;;;;;5059669;28;20577;-64
2023/02/04 06:05:06;;;;;;;0.20;0.20;;;;;;;;;;5044092;28;20247;-64
2023/02/04 06:07:34;;;;;;;0.20;0.20;;;;;;;;;;5032487;28;20219;-65
2023/02/04 06:10:00;;;;;;;0.20;0.20;;;;;;;;;;5044253;28;20243;-64
2023/02/04 06:12:27;;;;;;;0.20;0.20;;;;;;;;;;5049131;28;20239;-65
2023/02/04 06:14:53;;;;;;;0.20;0.20;;;;;;;;;;5043996;28;20403;-65
2023/02/04 06:17:19;;;;;;;0.20;0.20;;;;;;;;;;5049137;28;20311;-65
2023/02/04 06:19:46;;;;;;;0.20;0.20;;;;;;;;;;5043837;28;20275;-65
2023/02/04 06:22:12;;;;;;;0.20;0.20;;;;;;;;;;5049143;28;20240;-65
2023/02/04 06:24:40;;;;;;;0.20;0.20;;;;;;;;;;5043694;28;20227;-65
2023/02/04 06:27:06;;;;;;;0.20;0.20;;;;;;;;;;5048825;28;20311;-65
2023/02/04 06:29:33;;;;;;;0.20;0.20;;;;;;;;;;5043673;28;20383;-65
2023/02/04 06:31:59;;;;;;;0.20;0.20;;;;;;;;;;5048135;28;20313;-65
2023/02/04 06:34:25;;;;;;;0.20;0.20;;;;;;;;;;5048556;28;20232;-65
2023/02/04 06:36:52;;;;;;;0.20;0.20;;;;;;;;;;5046837;28;20310;-65
2023/02/04 06:39:19;;;;;;;0.20;0.20;;;;;;;;;;5045685;28;20274;-66
2023/02/04 06:41:47;;;;;;;0.20;0.20;;;;;;;;;;5046058;28;20246;-64
2023/02/04 06:44:13;;;;;;;0.20;0.20;;;;;;;;;;5046232;28;20207;-64
2023/02/04 06:46:40;;;;;;;0.20;0.20;;;;;;;;;;5045245;28;20457;-66
2023/02/04 06:49:06;;;;;;;0.20;0.20;;;;;;;;;;5047051;28;20211;-64
2023/02/04 06:51:33;;;;;;;0.20;0.20;;;;;;;;;;5045145;28;20259;-64
2023/02/04 06:53:59;;;;;;;0.20;0.20;;;;;;;;;;5048056;28;20270;-64
2023/02/04 06:56:28;;;;;;;0.20;0.20;;;;;;;;;;5043339;28;20474;-64
2023/02/04 06:58:55;;;;;;;0.20;0.20;;;;;;;;;;5048545;28;20211;-64
2023/02/04 07:01:22;;;;;;;0.20;0.20;;;;;;;;;;5042929;28;20238;-64
2023/02/04 07:03:48;;;;;;;0.20;0.20;;;;;;;;;;5051986;28;20239;-64
2023/02/04 07:06:15;;;;;;;0.20;0.20;;;;;;;;;;5046125;28;20255;-65
2023/02/04 07:08:41;;;;;;;0.20;0.20;;;;;;;;;;5054249;28;20207;-64
2023/02/04 07:11:07;;;;;;;0.20;0.20;;;;;;;;;;5044899;28;20246;-64
2023/02/04 07:13:34;;;;;;;0.20;0.20;;;;;;;;;;5054631;28;20208;-63
2023/02/04 07:16:01;;;;;;;0.20;0.20;;;;;;;;;;5043917;28;20250;-64
2023/02/04 07:18:28;;;;;;;0.20;0.20;;;;;;;;;;5055821;28;20405;-66
2023/02/04 07:20:54;;;;;;;0.20;0.20;;;;;;;;;;5043139;28;20243;-65
2023/02/04 07:23:20;;;;;;;0.20;0.20;;;;;;;;;;5056610;28;20276;-64
2023/02/04 07:25:47;;;;;;;0.20;0.20;;;;;;;;;;5042106;28;20265;-64
2023/02/04 07:28:14;;;;;;;0.20;0.20;;;;;;;;;;5057012;28;20208;-64
2023/02/04 07:30:40;;;;;;;0.20;0.20;;;;;;;;;;5041000;28;20243;-65
2023/02/04 07:33:08;;;;;;;0.20;0.20;;;;;;;;;;5057895;28;20234;-65
2023/02/04 07:35:34;;;;;;;0.20;0.20;;;;;;;;;;5040136;28;20457;-65
2023/02/04 07:38:01;;;;;;;0.20;0.20;;;;;;;;;;5058830;28;20208;-65
2023/02/04 07:40:27;;;;;;;0.20;0.20;;;;;;;;;;5039419;28;20260;-64
2023/02/04 07:42:53;;;;;;;0.20;0.20;;;;;;;;;;5059426;28;20259;-64
2023/02/04 07:45:20;;;;;;;0.20;0.20;;;;;;;;;;5038316;28;20526;-65
2023/02/04 07:47:46;;;;;;;0.20;0.20;;;;;;;;;;5060356;28;20256;-65
2023/02/04 07:50:14;;;;;;;0.20;0.20;;;;;;;;;;5036949;28;20239;-65
2023/02/04 07:52:41;;;;;;;0.20;0.20;;;;;;;;;;5060929;28;20273;-64
2023/02/04 07:55:08;;;;;;;0.20;0.20;;;;;;;;;;5041694;28;20391;-65
2023/02/04 07:57:34;;;;;;;0.20;0.20;;;;;;;;;;5061449;28;20221;-64
2023/02/04 08:00:00;;;;;;;0.20;0.20;;;;;;;;;;5046429;28;20235;-65
2023/02/04 08:02:27;;;;;;;0.20;0.20;;;;;;;;;;5051590;28;20239;-63
2023/02/04 08:04:53;;;;;;;0.20;0.20;;;;;;;;;;5046429;28;20208;-65
2023/02/04 08:07:21;;;;;;;0.20;0.20;;;;;;;;;;5051544;28;20469;-64
2023/02/04 08:09:47;;;;;;;0.20;0.20;;;;;;;;;;5046460;28;20243;-63
2023/02/04 08:12:14;;;;;;;0.20;0.20;;;;;;;;;;5051292;28;20255;-65
2023/02/04 08:14:40;;;;;;;0.20;0.20;;;;;;;;;;5045052;28;20247;-65
2023/02/04 08:17:06;;;;;;;0.20;0.20;;;;;;;;;;5051148;28;20574;-64
2023/02/04 08:19:33;;;;;;;0.20;0.20;;;;;;;;;;5046298;28;20426;-65
2023/02/04 08:21:59;;;;;;;0.20;0.20;;;;;;;;;;5050193;28;20488;-65
2023/02/04 08:24:27;;;;;;;0.20;0.20;;;;;;;;;;5047117;28;20219;-65
2023/02/04 08:26:53;;;;;;;0.20;0.20;;;;;;;;;;5049376;28;20259;-65
2023/02/04 08:29:19;;;;;;;0.20;0.20;;;;;;;;;;5047430;28;20278;-65
2023/02/04 08:31:46;;;;;;;0.20;0.20;;;;;;;;;;5048180;28;20454;-65
2023/02/04 08:34:12;;;;;;;0.20;0.20;;;;;;;;;;5048278;28;20219;-65
2023/02/04 08:36:39;;;;;;;0.20;0.20;;;;;;;;;;5047274;28;20259;-65
2023/02/04 08:39:05;;;;;;;0.20;0.20;;;;;;;;;;5049114;28;20211;-65
2023/02/04 08:41:33;;;;;;;0.20;0.20;;;;;;;;;;5046160;28;20260;-65
2023/02/04 08:43:59;;;;;;;0.20;0.20;;;;;;;;;;5049960;28;20246;-65
2023/02/04 08:46:25;;;;;;;0.20;0.20;;;;;;;;;;5045352;28;20242;-65
2023/02/04 08:48:52;;;;;;;0.17;0.17;;;;;;;;;;5050727;28;20275;-65
2023/02/04 08:51:19;;;;;;;0.20;0.20;;;;;;;;;;5044456;28;20307;-65
2023/02/04 08:53:45;;;;;;;0.20;0.20;;;;;;;;;;5051853;28;20205;-65
2023/02/04 08:56:15;;;;;;;0.20;0.20;;;;;;;;;;5043683;28;20246;-65
2023/02/04 08:58:43;;;;;;;0.20;0.20;;;;;;;;;;5052125;28;20214;-66
2023/02/04 09:01:11;;;;;;;0.20;0.20;;;;;;;;;;5043259;28;20240;-65
2023/02/04 09:03:37;;;;;;;0.20;0.20;;;;;;;;;;5052205;28;20236;-65
2023/02/04 09:06:04;;;;;;;0.20;0.20;;;;;;;;;;5042592;28;20256;-65
2023/02/04 09:08:30;;;;;;;0.20;0.20;;;;;;;;;;5052920;28;20237;-64
2023/02/04 09:10:57;;;;;;;0.20;0.20;;;;;;;;;;5041425;28;20249;-64
2023/02/04 09:13:23;;;;;;;0.20;0.20;;;;;;;;;;5054119;28;20244;-65
2023/02/04 09:15:51;;;;;;;0.17;0.17;;;;;;;;;;5040412;28;20247;-66
2023/02/04 09:18:20;;;;;;;0.10;0.10;;;;;;;;;;5055040;28;20212;-65
2023/02/04 09:20:47;;;;;;;0.10;0.10;;;;;;;;;;5040124;28;20242;-65
2023/02/04 09:23:14;;;;;;;0.10;0.10;;;;;;;;;;5055025;28;20238;-64
2023/02/04 09:25:41;;;;;;;0.10;0.10;;;;;;;;;;5039178;28;20315;-64
2023/02/04 09:28:08;;;;;;;0.10;0.10;;;;;;;;;;5055552;28;20216;-65
2023/02/04 09:30:35;;;;;;;0.10;0.10;;;;;;;;;;5038133;28;20597;-64
2023/02/04 09:33:02;;;;;;;0.10;0.10;;;;;;;;;;5056236;28;20229;-65
2023/02/04 09:35:29;;;;;;;0.10;0.10;;;;;;;;;;5037620;28;20499;-66
2023/02/04 09:37:55;;;;;;;0.10;0.10;;;;;;;;;;5056999;28;20279;-65
2023/02/04 09:40:22;;;;;;;0.10;0.10;;;;;;;;;;5036546;28;20272;-65
2023/02/04 09:42:49;;;;;;;0.10;0.10;;;;;;;;;;5057823;28;20264;-66
2023/02/04 09:45:17;;;;;;;0.10;0.10;;;;;;;;;;5035551;28;20208;-67
2023/02/04 09:47:43;;;;;;;0.10;0.10;;;;;;;;;;5058464;28;20264;-66
2023/02/04 09:50:14;;;;;;;0.10;0.10;;;;;;;;;;5034796;28;20236;-67
2023/02/04 09:52:40;;;;;;;0.10;0.10;;;;;;;;;;5058856;28;20212;-66
2023/02/04 09:55:09;;;;;;;0.77;0.77;;;;;;;;;;5041332;28;20268;-68
2023/02/04 09:57:35;;;;;;;0.10;0.10;;;;;;;;;;5059437;28;20464;-66
2023/02/04 10:00:02;;;;;;;0.10;0.10;;;;;;;;;;5044414;28;20228;-68
2023/02/04 10:02:28;;;;;;;0.10;0.10;;;;;;;;;;5049365;28;20309;-66
2023/02/04 10:04:56;;;;;;;0.10;0.10;;;;;;;;;;5044404;28;20536;-66
2023/02/04 10:07:26;;;;;;;0.10;0.10;;;;;;;;;;5049441;28;20623;-65
2023/02/04 10:09:53;;;;;;;0.10;0.10;;;;;;;;;;5044136;28;20243;-66
2023/02/04 10:12:19;;;;;;;0.10;0.10;;;;;;;;;;5049137;28;20577;-66
2023/02/04 10:14:46;;;;;;;0.10;0.10;;;;;;;;;;5044264;28;20214;-66
2023/02/04 10:17:13;;;;;;;0.10;0.10;;;;;;;;;;5049038;28;20589;-64
2023/02/04 10:19:40;;;;;;;0.10;0.10;;;;;;;;;;5043931;28;20281;-65
2023/02/04 10:22:15;;;;;;;0.10;0.10;;;;;;;;;;5049048;28;20303;-65
2023/02/04 10:24:43;;;;;;;0.10;0.10;;;;;;;;;;5043868;28;20237;-65
2023/02/04 10:27:10;;;;;;;3.20;3.00;;;;;;;;;;5049128;28;20262;-66
2023/02/04 10:29:37;;;;;;;0.10;0.10;;;;;;;;;;5043687;28;20222;-63
2023/02/04 10:32:03;;;;;;;0.10;0.10;;;;;;;;;;5048436;28;20304;-64
2023/02/04 10:34:33;;;;;;;0.10;0.10;;;;;;;;;;5044208;28;20228;-64
2023/02/04 10:37:00;;;;;;;0.10;0.10;;;;;;;;;;5047557;28;20252;-63
2023/02/04 10:39:27;;;;;;;0.13;0.13;;;;;;;;;;5044361;28;20411;-64
2023/02/04 10:41:55;;;;;;;0.10;0.10;;;;;;;;;;5047033;28;20255;-63
2023/02/04 10:44:25;;;;;;;0.10;0.10;;;;;;;;;;5045148;28;20281;-64
2023/02/04 10:46:58;;;;;;;0.10;0.10;;;;;;;;;;5046938;28;20307;-63
2023/02/04 10:49:24;;;;;;;0.10;0.10;;;;;;;;;;5044651;28;20239;-63
2023/02/04 10:51:52;;;;;;;0.10;0.10;;;;;;;;;;5046654;28;20510;-62
2023/02/04 10:54:32;;;;;;;0.10;0.10;;;;;;;;;;5045623;28;20394;-68
2023/02/04 10:57:03;;;;;;;0.10;0.10;;;;;;;;;;5047602;28;20258;-66
2023/02/04 10:59:30;;;;;;;0.10;0.10;;;;;;;;;;5044125;28;20308;-65
2023/02/04 11:01:57;;;;;;;0.10;0.10;;;;;;;;;;5047197;28;20254;-67
2023/02/04 11:04:24;;;;;;;0.10;0.10;;;;;;;;;;5044880;28;20237;-67
2023/02/04 11:06:50;;;;;;;0.10;0.10;;;;;;;;;;5046395;28;20563;-67
2023/02/04 11:09:17;;;;;;;0.10;0.10;;;;;;;;;;5045274;28;20277;-67
2023/02/04 11:11:47;;;;;;;0.10;0.10;;;;;;;;;;5045432;28;20592;-67
2023/02/04 11:14:25;;;;;;;0.10;0.10;;;;;;;;;;5045851;28;20279;-68
2023/02/04 11:16:53;;;;;;;0.10;0.10;;;;;;;;;;5046565;28;20638;-70
2023/02/04 11:19:30;;;;;;;0.10;0.10;;;;;;;;;;5044967;28;20206;-67
2023/02/04 11:22:04;;;;;;;0.10;0.10;;;;;;;;;;5046954;28;20267;-66
2023/02/04 11:24:33;;;;;;;0.10;0.10;;;;;;;;;;5043573;28;20273;-66
2023/02/04 11:27:05;;;;;;;0.10;0.10;;;;;;;;;;5047437;28;20306;-66
2023/02/04 11:29:37;;;;;;;0.10;0.10;;;;;;;;;;5043157;28;20284;-65
2023/02/04 11:32:05;;;;;;;0.10;0.10;;;;;;;;;;5047974;28;20240;-68
2023/02/04 11:34:43;;;;;;;0.10;0.10;;;;;;;;;;5043089;28;20276;-67
2023/02/04 11:37:17;;;;;;;0.10;0.10;;;;;;;;;;5048397;28;20242;-65
2023/02/04 11:39:44;;;;;;;0.10;0.10;;;;;;;;;;5043288;28;20245;-64
2023/02/04 11:42:19;;;;;;;0.10;0.10;;;;;;;;;;5048390;28;20245;-64
2023/02/04 11:44:50;;;;;;;0.10;0.10;;;;;;;;;;5043361;28;20250;-64
2023/02/04 11:47:17;;;;;;;0.10;0.10;;;;;;;;;;5048374;28;20305;-64
2023/02/04 11:49:45;;;;;;;0.10;0.10;;;;;;;;;;5043950;28;20206;-64
2023/02/04 11:52:13;;;;;;;0.10;0.10;;;;;;;;;;5051765;28;20521;-64
2023/02/04 11:54:39;;;;;;;0.10;0.10;;;;;;;;;;5046432;28;20277;-63
2023/02/04 11:57:06;;;;;;;0.10;0.10;;;;;;;;;;5051454;28;20255;-65
2023/02/04 11:59:32;;;;;;;0.10;0.10;;;;;;;;;;5046399;28;20269;-65
2023/02/04 12:02:08;;;;;;;0.10;0.10;;;;;;;;;;5050036;28;20313;-64
2023/02/04 12:04:34;;;;;;;0.10;0.10;;;;;;;;;;5046858;28;20242;-64
2023/02/04 12:07:02;;;;;;;0.10;0.10;;;;;;;;;;5050744;28;20304;-64
2023/02/04 12:09:29;;;;;;;0.10;0.10;;;;;;;;;;5047011;28;20233;-66
2023/02/04 12:11:57;;;;;;;0.10;0.10;;;;;;;;;;5049916;28;20246;-67
2023/02/04 12:14:27;;;;;;;0.10;0.10;;;;;;;;;;5047557;28;20247;-63
2023/02/04 12:16:55;;;;;;;0.10;0.10;;;;;;;;;;5049489;28;20236;-69
2023/02/04 12:19:23;;;;;;;0.10;0.10;;;;;;;;;;5047774;28;20204;-67
2023/02/04 12:21:49;;;;;;;0.10;0.10;;;;;;;;;;5049137;28;20309;-66
2023/02/04 12:24:15;;;;;;;0.10;0.10;;;;;;;;;;5048230;28;20217;-70
2023/02/04 12:26:42;;;;;;;0.10;0.10;;;;;;;;;;5047937;28;20325;-67
2023/02/04 12:29:08;;;;;;;0.10;0.10;;;;;;;;;;5049003;28;20216;-69
2023/02/04 12:31:35;;;;;;;0.10;0.10;;;;;;;;;;5046797;28;20248;-67
2023/02/04 12:34:01;;;;;;;0.10;0.10;;;;;;;;;;5049744;28;20257;-69
2023/02/04 12:36:29;;;;;;;0.10;0.10;;;;;;;;;;5045977;28;20253;-67
2023/02/04 12:38:57;;;;;;;0.10;0.10;;;;;;;;;;5050837;28;20393;-67
2023/02/04 12:41:23;;;;;;;0.10;0.10;;;;;;;;;;5045361;28;20309;-67
2023/02/04 12:43:50;;;;;;;0.10;0.10;;;;;;;;;;5051332;28;20296;-67
2023/02/04 12:46:16;;;;;;;0.10;0.10;;;;;;;;;;5044500;28;20307;-68
2023/02/04 12:48:43;;;;;;;0.10;0.10;;;;;;;;;;5052195;28;20272;-67
2023/02/04 12:51:09;;;;;;;0.10;0.10;;;;;;;;;;5043362;28;20240;-67
2023/02/04 12:53:37;;;;;;;0.10;0.10;;;;;;;;;;5052593;28;20256;-66
2023/02/04 12:56:04;;;;;;;0.10;0.10;;;;;;;;;;5042528;28;20319;-66
2023/02/04 12:58:30;;;;;;;0.10;0.10;;;;;;;;;;5053401;28;20235;-66
2023/02/04 13:00:56;;;;;;;0.10;0.10;;;;;;;;;;5041211;28;20239;-66
2023/02/04 13:03:24;;;;;;;0.10;0.10;;;;;;;;;;5054178;28;20272;-67
2023/02/04 13:05:50;;;;;;;0.10;0.10;;;;;;;;;;5040510;28;20314;-67
2023/02/04 13:08:16;;;;;;;0.10;0.10;;;;;;;;;;5055107;28;20212;-66
2023/02/04 13:10:44;;;;;;;0.10;0.10;;;;;;;;;;5039728;28;20315;-67
2023/02/04 13:13:10;;;;;;;0.10;0.10;;;;;;;;;;5055678;28;20263;-67
2023/02/04 13:15:37;;;;;;;0.10;0.10;;;;;;;;;;5038736;28;20374;-69
2023/02/04 13:18:03;;;;;;;0.10;0.10;;;;;;;;;;5056931;28;20247;-71
2023/02/04 13:20:30;;;;;;;0.10;0.10;;;;;;;;;;5038360;28;20319;-73
2023/02/04 13:22:56;;;;;;;0.10;0.10;;;;;;;;;;5057679;28;20191;-69
2023/02/04 13:25:22;;;;;;;0.10;0.10;;;;;;;;;;5036725;28;20241;-68
2023/02/04 13:27:50;;;;;;;0.10;0.10;;;;;;;;;;5058804;28;20206;-73
2023/02/04 13:30:17;;;;;;;0.10;0.10;;;;;;;;;;5035690;28;20247;-71
2023/02/04 13:32:43;;;;;;;0.10;0.10;;;;;;;;;;5059022;28;20448;-71
2023/02/04 13:35:12;;;;;;;0.10;0.10;;;;;;;;;;5035135;28;20216;-71
2023/02/04 13:37:38;;;;;;;0.10;0.10;;;;;;;;;;5059374;28;20216;-70
2023/02/04 13:40:05;;;;;;;0.10;0.10;;;;;;;;;;5045126;28;20232;-72
2023/02/04 13:42:34;;;;;;;0.10;0.10;;;;;;;;;;5049967;28;20240;-70
2023/02/04 13:45:02;;;;;;;0.10;0.10;;;;;;;;;;5044856;28;20207;-68
2023/02/04 13:47:29;;;;;;;0.10;0.10;;;;;;;;;;5049898;28;20442;-68
2023/02/04 13:49:55;;;;;;;0.10;0.10;;;;;;;;;;5044944;28;20233;-68
2023/02/04 13:52:21;;;;;;;0.10;0.10;;;;;;;;;;5049842;28;20236;-70
2023/02/04 13:54:48;;;;;;;0.10;0.10;;;;;;;;;;5044589;28;20275;-71
2023/02/04 13:57:16;;;;;;;0.10;0.10;;;;;;;;;;5049768;28;20251;-69
2023/02/04 13:59:42;;;;;;;0.10;0.10;;;;;;;;;;5044230;28;20509;-71
2023/02/04 14:02:10;;;;;;;0.10;0.10;;;;;;;;;;5049455;28;20311;-70
2023/02/04 14:04:36;;;;;;;0.10;0.10;;;;;;;;;;5044547;28;20204;-70
2023/02/04 14:07:09;;;;;;;0.10;0.10;;;;;;;;;;5049012;28;20247;-70
2023/02/04 14:09:35;;;;;;;0.10;0.10;;;;;;;;;;5044430;28;20279;-68
2023/02/04 14:12:02;;;;;;;0.10;0.10;;;;;;;;;;5047969;28;20306;-68
2023/02/04 14:14:28;;;;;;;0.10;0.10;;;;;;;;;;5044573;28;20264;-69
2023/02/04 14:16:54;;;;;;;0.10;0.10;;;;;;;;;;5047495;28;20263;-70
2023/02/04 14:19:26;;;;;;;0.47;0.47;;;;;;;;;;5045444;28;20217;-72
2023/02/04 14:21:52;;;;;;;0.10;0.10;;;;;;;;;;5047463;28;20240;-77
2023/02/04 14:24:19;;;;;;;0.10;0.10;;;;;;;;;;5045810;28;20268;-77
2023/02/04 14:26:46;;;;;;;0.10;0.10;;;;;;;;;;5046670;28;20245;-75
2023/02/04 14:29:13;;;;;;;0.10;0.10;;;;;;;;;;5046334;28;20212;-74
2023/02/04 14:31:40;;;;;;;0.10;0.10;;;;;;;;;;5045814;28;20625;-74
2023/02/04 14:34:07;;;;;;;0.10;0.10;;;;;;;;;;5047204;28;20471;-73
2023/02/04 14:36:35;;;;;;;0.10;0.10;;;;;;;;;;5044846;28;20271;-73
2023/02/04 14:39:01;;;;;;;0.17;0.17;;;;;;;;;;5047512;28;20220;-73
2023/02/04 14:41:30;;;;;;;0.10;0.10;;;;;;;;;;5043739;28;20493;-73